Hutchinson, MN

4:28 PM CDT on April 30, 2017 (GMT -0500)
Hutchinson Municipal-Butler

Weather History for KHCD - February, 2014

Change the Weather History Date:

Thursday, February 13, 2014

  Actual Average Record
Temperature  
Mean Temperature 17 °F -  
Max Temperature 32 °F 27 °F 96 °F (2005)
Min Temperature 2 °F 7 °F -18 °F (1970)
Degree Days  
Heating Degree Days 48    
Moisture  
Dew Point 11 °F    
Average Humidity 83    
Maximum Humidity 92    
Minimum Humidity 75    
Precipitation  
Precipitation 0.00 in - - ()
Sea Level Pressure  
Sea Level Pressure 29.60 in    
Wind  
Wind Speed 15 mph (West)    
Max Wind Speed 34 mph    
Max Gust Speed 40 mph    
Visibility 6 miles    
Events Snow    
Averages and records for this station are not official NWS values.
T = Trace of Precipitation, MM = Missing Value Source: NWS Daily Summary

Daily Weather History Graph

Daily Weather History Graph

Search for Another Location

Airport or City:

Trip Planner

Search our weather history database for the weather conditions in past years. The results will help you decide how hot, cold, wet, or windy it might be!

Date:

Astronomy

Feb. 13, 2014 Rise Set
Actual Time 7:21 AM CST 5:43 PM CST
Civil Twilight 6:50 AM CST 6:13 PM CST
Nautical Twilight 6:16 AM CST 6:47 PM CST
Astronomical Twilight 5:42 AM CST 7:21 PM CST
Moon 4:52 PM CST (2/13) 6:15 AM CST (2/13)
Length of Visible Light 11h 22m
Length of Day
10h 21m
Waxing Gibbous, 99% of the Moon is Illuminated
Feb 13
Waxing Gibbous
Feb 14
Full
Feb 22
Last Quarter
Mar 1
New
Mar 8
First Quarter

Hourly Weather History & Observations

Time (CST) Temp. Windchill Dew Point Humidity Pressure Visibility Wind Dir Wind Speed Gust Speed Precip Events Conditions
12:13 AM 18.1 °F 5.6 °F 15.8 °F 91% 29.71 in 5.0 mi SSE 11.5 mph 17.3 mph N/A   Overcast
12:33 AM 18.3 °F 5.9 °F 16.2 °F 91% 29.69 in 4.0 mi SSE 11.5 mph 17.3 mph N/A   Overcast
12:53 AM 18.5 °F 6.8 °F 16.5 °F 92% 29.70 in 5.0 mi South 10.4 mph 21.9 mph N/A   Overcast
1:13 AM 18.5 °F 6.8 °F 16.5 °F 92% 29.65 in 4.0 mi SSE 10.4 mph 21.9 mph N/A   Overcast
1:33 AM 19.0 °F 5.6 °F 16.7 °F 91% 29.63 in 5.0 mi SE 13.8 mph 18.4 mph N/A   Overcast
1:53 AM 19.4 °F 7.9 °F 17.4 °F 92% 29.60 in 5.0 mi SSE 10.4 mph 19.6 mph N/A   Overcast
2:13 AM 20.1 °F 8.8 °F 18.1 °F 92% 29.58 in 4.0 mi SSE 10.4 mph 20.7 mph N/A Snow Light Snow
2:33 AM 20.7 °F 9.5 °F 18.5 °F 91% 29.56 in 2.0 mi SSE 10.4 mph 20.7 mph N/A Snow Light Snow
2:53 AM 21.0 °F 9.3 °F 19.0 °F 92% 29.53 in 3.0 mi SSE 11.5 mph 18.4 mph N/A   Overcast
3:13 AM 21.9 °F 9.8 °F 19.9 °F 92% 29.52 in 4.0 mi SSE 12.7 mph 18.4 mph N/A   Overcast
3:33 AM 23.0 °F 10.6 °F 20.7 °F 91% 29.51 in 4.0 mi South 13.8 mph 19.6 mph N/A   Overcast
3:53 AM 23.0 °F 11.7 °F 20.8 °F 91% 29.48 in 5.0 mi South 11.5 mph 20.7 mph N/A   Overcast
4:13 AM 23.5 °F 10.3 °F 21.0 °F 90% 29.47 in 5.0 mi South 16.1 mph 21.9 mph N/A   Overcast
4:33 AM 23.9 °F 12.3 °F 21.2 °F 89% 29.46 in 5.0 mi South 12.7 mph 19.6 mph N/A   Overcast
4:53 AM 24.8 °F 11.9 °F 21.6 °F 87% 29.46 in 7.0 mi South 16.1 mph 20.7 mph N/A   Overcast
5:13 AM 24.3 °F 12.7 °F 21.2 °F 88% 29.45 in 7.0 mi South 12.7 mph 20.7 mph N/A   Scattered Clouds
5:33 AM 23.9 °F 12.3 °F 21.0 °F 89% 29.44 in 7.0 mi South 12.7 mph 18.4 mph N/A   Clear
5:53 AM 23.5 °F 12.4 °F 20.5 °F 88% 29.43 in 7.0 mi South 11.5 mph 18.4 mph N/A   Clear
6:13 AM 23.9 °F 14.2 °F 21.0 °F 89% 29.42 in 7.0 mi South 9.2 mph 16.1 mph N/A   Clear
6:33 AM 23.9 °F 13.5 °F 21.2 °F 89% 29.41 in 7.0 mi South 10.4 mph - N/A   Scattered Clouds
6:53 AM 26.1 °F 17.6 °F 22.8 °F 88% 29.41 in 10.0 mi SW 8.1 mph - N/A   Overcast
7:13 AM 27.3 °F 17.7 °F 23.4 °F 85% 29.41 in 10.0 mi SW 10.4 mph 17.3 mph N/A   Overcast
7:33 AM 28.9 °F 19.2 °F 24.4 °F 83% 29.42 in 10.0 mi SW 11.5 mph - N/A   Overcast
7:53 AM 30.7 °F 18.8 °F 26.4 °F 84% 29.42 in 10.0 mi West 18.4 mph 25.3 mph N/A   Overcast
8:13 AM 32.2 °F 18.6 °F 28.4 °F 86% 29.43 in 4.0 mi West 26.5 mph 34.5 mph N/A   Overcast
8:33 AM 26.1 °F 9.8 °F 21.9 °F 84% 29.45 in 1.2 mi West 28.8 mph 40.3 mph N/A   Overcast
8:53 AM 22.8 °F 5.2 °F 19.0 °F 85% 29.47 in 0.8 mi West 29.9 mph 40.3 mph N/A Snow Light Snow
9:13 AM 19.8 °F 1.6 °F 16.2 °F 86% 29.49 in 1.2 mi West 27.6 mph 39.1 mph N/A   Overcast
9:33 AM 19.0 °F -1.1 °F 15.1 °F 85% 29.50 in 1.0 mi West 34.5 mph - N/A   Overcast
9:53 AM 18.0 °F -0.8 °F 14.5 °F 86% 29.52 in 0.8 mi West 27.6 mph 34.5 mph N/A Snow Light Snow
10:13 AM 17.4 °F -0.9 °F 13.8 °F 86% 29.53 in 0.8 mi West 25.3 mph 35.7 mph N/A Snow Light Snow
10:33 AM 16.5 °F -1.4 °F 13.1 °F 86% 29.54 in 0.5 mi West 23.0 mph 32.2 mph N/A Snow Light Snow
10:53 AM 16.7 °F -0.7 °F 12.0 °F 82% 29.55 in 1.2 mi WNW 21.9 mph 34.5 mph N/A   Haze
11:13 AM 16.3 °F -1.6 °F 11.8 °F 82% 29.56 in 0.8 mi West 23.0 mph 33.4 mph N/A Snow Light Snow
11:33 AM 15.8 °F -3.4 °F 11.5 °F 83% 29.56 in 0.8 mi West 26.5 mph 36.8 mph N/A Snow Light Snow
11:53 AM 15.6 °F -4.0 °F 10.8 °F 81% 29.57 in 1.0 mi West 27.6 mph 33.4 mph N/A   Overcast
12:13 PM 14.5 °F -4.7 °F 10.6 °F 84% 29.56 in 1.0 mi West 25.3 mph 29.9 mph N/A   Overcast
12:33 PM 14.2 °F -6.6 °F 9.5 °F 82% 29.56 in 1.0 mi West 29.9 mph 34.5 mph N/A   Haze
12:53 PM 13.8 °F -6.1 °F 9.5 °F 83% 29.57 in 0.8 mi West 26.5 mph 33.4 mph N/A   Haze
1:33 PM 13.8 °F -4.5 °F 8.6 °F 80% 29.60 in 1.5 mi WNW 21.9 mph 31.1 mph N/A   Haze
1:53 PM 13.3 °F -5.3 °F 8.1 °F 80% 29.61 in 2.5 mi WNW 21.9 mph 29.9 mph N/A   Haze
2:13 PM 13.1 °F -4.6 °F 7.7 °F 79% 29.62 in 2.0 mi WNW 19.6 mph 34.5 mph N/A   Haze
2:33 PM 12.4 °F -8.3 °F 7.3 °F 80% 29.63 in 1.5 mi WNW 27.6 mph 35.7 mph N/A   Haze
2:53 PM 12.6 °F -7.4 °F 7.5 °F 80% 29.63 in 1.8 mi WNW 25.3 mph 32.2 mph N/A   Haze
3:13 PM 12.2 °F -6.7 °F 6.6 °F 78% 29.64 in 2.5 mi WNW 21.9 mph 32.2 mph N/A   Haze
3:33 PM 12.2 °F -7.1 °F 5.7 °F 75% 29.65 in 0.2 mi WNW 23.0 mph 32.2 mph N/A Snow Light Snow
3:53 PM 11.7 °F -7.4 °F 5.0 °F 75% 29.66 in 1.8 mi WNW 21.9 mph 29.9 mph N/A   Haze
4:13 PM 11.1 °F -7.7 °F 5.5 °F 78% 29.67 in 5.0 mi WNW 20.7 mph 27.6 mph N/A   Haze
4:33 PM 10.8 °F -6.7 °F 5.2 °F 78% 29.68 in 10.0 mi WNW 17.3 mph 26.5 mph N/A   Mostly Cloudy
4:53 PM 10.2 °F -6.3 °F 4.1 °F 76% 29.70 in 10.0 mi WNW 15.0 mph 23.0 mph N/A   Scattered Clouds
5:13 PM 9.3 °F -8.0 °F 3.7 °F 78% 29.70 in 10.0 mi WNW 16.1 mph 23.0 mph N/A   Clear
5:33 PM 8.4 °F -8.6 °F 3.2 °F 79% 29.70 in 10.0 mi WNW 15.0 mph 24.2 mph N/A   Clear
5:53 PM 7.5 °F -10.9 °F 2.5 °F 80% 29.72 in 10.0 mi West 17.3 mph - N/A   Clear
6:13 PM 6.8 °F -10.7 °F 1.8 °F 80% 29.72 in 10.0 mi WNW 15.0 mph - N/A   Clear
6:33 PM 6.3 °F -10.7 °F 1.2 °F 80% 29.72 in 10.0 mi WNW 13.8 mph - N/A   Clear
6:54 PM 5.9 °F -10.5 °F 0.5 °F 78% 29.73 in 10.0 mi WNW 12.7 mph - N/A   Clear
7:13 PM 5.4 °F -10.4 °F -0.4 °F 77% 29.74 in 10.0 mi WNW 11.5 mph - N/A   Clear
7:33 PM 5.0 °F -11.6 °F -0.6 °F 78% 29.74 in 10.0 mi WNW 12.7 mph - N/A   Clear
7:53 PM 4.5 °F -11.5 °F -0.6 °F 80% 29.74 in 10.0 mi WNW 11.5 mph - N/A   Clear
8:13 PM 3.9 °F -12.2 °F -1.3 °F 79% 29.74 in 10.0 mi WNW 11.5 mph - N/A   Clear
8:33 PM 3.6 °F -12.6 °F -1.7 °F 79% 29.75 in 10.0 mi West 11.5 mph - N/A   Clear
8:53 PM 3.2 °F -13.9 °F -2.0 °F 79% 29.75 in 10.0 mi WNW 12.7 mph - N/A   Clear
9:13 PM 2.8 °F -13.5 °F -2.2 °F 79% 29.75 in 10.0 mi WNW 11.5 mph - N/A   Clear
9:33 PM 2.5 °F -14.0 °F -2.4 °F 80% 29.75 in 10.0 mi WNW 11.5 mph - N/A   Clear
9:53 PM 2.7 °F -12.9 °F -2.4 °F 79% 29.75 in 10.0 mi WNW 10.4 mph - N/A   Clear
10:13 PM 3.2 °F -11.3 °F -2.2 °F 78% 29.75 in 10.0 mi WNW 9.2 mph - N/A   Clear
10:33 PM 3.2 °F -11.3 °F -2.2 °F 78% 29.74 in 10.0 mi WNW 9.2 mph - N/A   Clear
10:53 PM 3.2 °F -13.1 °F -2.2 °F 78% 29.72 in 10.0 mi NW 11.5 mph - N/A   Clear
11:13 PM 3.6 °F -10.9 °F -2.2 °F 77% 29.75 in 10.0 mi WNW 9.2 mph - N/A   Clear
11:33 PM 3.2 °F -10.3 °F -2.2 °F 78% 29.75 in 10.0 mi WNW 8.1 mph - N/A   Clear
11:53 PM 2.8 °F -11.7 °F -2.4 °F 79% 29.76 in 10.0 mi WNW 9.2 mph - N/A   Clear